• Join FlightAware (Why Join?)
  • Login
  • US Flag 
04:56AM EST


 

Airport Tracker/Info


-or-


 

Live Flight TrackerFlight Track Log ✈ SKW7430 ✈ 26-Apr-2013 ✈ KPIH - KSLC

Flight Track Log - Related Links

Times and Time Zones

All times are in EDT time to prevent confusion due to time zone crossing. See the SKW7430 flight status page for this flight to view local times or setup timezone preferences in your user account.

Time Position Orientation Groundspeed Altitude Reporting Facility
EDT Latitude Longitude Course Direction KTS MPH feet Rate Location/Type
08:01PM 42.8211 -112.5789 165° South 174 200 8,300  Level Salt Lake Center
08:02PM 42.7694 -112.5633 168° South 189 217 10,300 1,620 Climbing Salt Lake Center
08:03PM 42.9216 -113.0116 163° South  Level FlightAware Approximate
08:04PM 42.8423 -112.9776 163° South  Level FlightAware Approximate
08:04PM 42.7161 -112.5594 177° South 197 227 11,700  Level Salt Lake Center
08:05PM 42.7626 -112.9450 164° South  Level FlightAware Approximate
08:05PM 42.6506 -112.5556 178° South 228 262 12,800  Level Salt Lake Center
08:06PM 42.6829 -112.9131 164° South  Level FlightAware Approximate
08:06PM 42.5653 -112.5553 180° South 253 291 14,000  Level Salt Lake Center
08:07PM 42.4911 -112.5503 177° South 266 306 15,200 1,080 Climbing Salt Lake Center
08:08PM 42.4167 -112.5447 177° South 269 310 16,300 1,020 Climbing Salt Lake Center
08:09PM 42.3400 -112.5381 176° South 274 315 17,400 780 Climbing Salt Lake Center
08:10PM 42.2617 -112.5342 178° South 280 322 18,000 780 Climbing Salt Lake Center
08:11PM 42.1831 -112.5308 178° South 283 326 19,100 900 Climbing Salt Lake Center
08:12PM 42.1028 -112.5217 175° South 288 331 19,900 780 Climbing Salt Lake Center
08:13PM 42.0058 -112.5200 179° South 292 336 20,800 840 Climbing Salt Lake Center
08:14PM 41.9239 -112.5119 176° South 294 338 21,700 360 Climbing Salt Lake Center
08:15PM 41.8406 -112.5075 178° South 298 343 21,600 -1,020 Descending Salt Lake Center
08:16PM 41.7508 -112.5019 177° South 315 362 19,700 -2,220 Descending Salt Lake Center
08:16PM 41.7053 -112.4906 169° South 314 361 18,200 -2,160 Descending Salt Lake Center
08:17PM 41.6600 -112.4944 184° South 328 377 17,500 -1,680 Descending Salt Lake Center
08:18PM 41.5697 -112.4736 170° South 340 391 15,600 -1,320 Descending Salt Lake Center
08:19PM 41.4922 -112.4203 153° Southeast 317 365 14,800 -900 Descending Salt Lake Center
08:20PM 41.3969 -112.3589 154° Southeast 316 364 13,800 -840 Descending Salt Lake Center
08:21PM 41.3167 -112.3011 152° Southeast 316 364 13,100 -420 Descending Salt Lake Center
08:22PM 41.2406 -112.2528 154° Southeast 307 353 13,000 -60 Descending Salt Lake Center
08:23PM 41.1689 -112.2069 154° Southeast 301 346 13,000  Level Salt Lake Center
08:24PM 41.0986 -112.1608 154° Southeast 288 331 13,000 -240 Level Salt Lake Center
08:25PM 41.0086 -112.1319 166° South 297 342 12,600 -600 Descending Salt Lake Center
08:26PM 40.9256 -112.1147 171° South 302 348 11,900 -780 Descending Salt Lake Center
08:27PM 40.8411 -112.1008 173° South 309 356 11,100 -840 Descending Salt Lake Center
08:28PM 40.7708 -112.0933 175° South 219 252 10,300 -2,220 Descending Salt Lake Center
08:29PM 40.7117 -112.0767 168° South 228 262 6,600 -3,660 Descending Salt Lake Center